sensor_id;sensor_type;location;lat;lon;timestamp;P1;durP1;ratioP1;P2;durP2;ratioP2
78542;SDS011;67836;52.430;14.446;2024-03-23T00:54:07;4.47;;;1.33;;
78542;SDS011;67836;52.430;14.446;2024-03-23T00:56:51;6.78;;;1.52;;
78542;SDS011;67836;52.430;14.446;2024-03-23T00:59:35;11.50;;;2.42;;
78542;SDS011;67836;52.430;14.446;2024-03-23T01:02:19;7.38;;;1.83;;
78542;SDS011;67836;52.430;14.446;2024-03-23T01:05:04;4.63;;;1.05;;
78542;SDS011;67836;52.430;14.446;2024-03-23T01:07:48;8.13;;;1.70;;
78542;SDS011;67836;52.430;14.446;2024-03-23T01:10:31;5.40;;;1.77;;
78542;SDS011;67836;52.430;14.446;2024-03-23T01:13:15;11.73;;;2.30;;
78542;SDS011;67836;52.430;14.446;2024-03-23T01:18:43;8.73;;;1.50;;
78542;SDS011;67836;52.430;14.446;2024-03-23T01:21:27;12.75;;;2.05;;
78542;SDS011;67836;52.430;14.446;2024-03-23T01:29:38;7.25;;;1.73;;
78542;SDS011;67836;52.430;14.446;2024-03-23T01:32:22;7.07;;;1.63;;
78542;SDS011;67836;52.430;14.446;2024-03-23T01:37:50;6.15;;;1.30;;
78542;SDS011;67836;52.430;14.446;2024-03-23T01:40:34;7.07;;;1.90;;
78542;SDS011;67836;52.430;14.446;2024-03-23T01:43:18;8.80;;;1.98;;
78542;SDS011;67836;52.430;14.446;2024-03-23T01:48:45;6.43;;;1.50;;
78542;SDS011;67836;52.430;14.446;2024-03-23T01:54:13;9.18;;;1.83;;
78542;SDS011;67836;52.430;14.446;2024-03-23T01:56:57;5.18;;;0.77;;
78542;SDS011;67836;52.430;14.446;2024-03-23T01:59:40;2.92;;;1.23;;
78542;SDS011;67836;52.430;14.446;2024-03-23T02:05:08;0.82;;;0.52;;
78542;SDS011;67836;52.430;14.446;2024-03-23T02:10:35;8.07;;;2.05;;
78542;SDS011;67836;52.430;14.446;2024-03-23T02:13:19;5.85;;;1.73;;
78542;SDS011;67836;52.430;14.446;2024-03-23T02:16:04;7.82;;;2.38;;
78542;SDS011;67836;52.430;14.446;2024-03-23T02:18:48;10.52;;;1.98;;
78542;SDS011;67836;52.430;14.446;2024-03-23T02:24:16;7.10;;;1.63;;
78542;SDS011;67836;52.430;14.446;2024-03-23T02:27:00;8.15;;;1.60;;
78542;SDS011;67836;52.430;14.446;2024-03-23T02:32:27;10.60;;;1.55;;
78542;SDS011;67836;52.430;14.446;2024-03-23T02:35:11;5.10;;;1.23;;
78542;SDS011;67836;52.430;14.446;2024-03-23T02:37:55;7.90;;;1.73;;
78542;SDS011;67836;52.430;14.446;2024-03-23T02:40:40;10.23;;;1.75;;
78542;SDS011;67836;52.430;14.446;2024-03-23T02:43:24;10.18;;;1.83;;
78542;SDS011;67836;52.430;14.446;2024-03-23T02:46:08;8.43;;;1.90;;
78542;SDS011;67836;52.430;14.446;2024-03-23T02:48:52;12.63;;;2.25;;
78542;SDS011;67836;52.430;14.446;2024-03-23T02:54:20;7.85;;;1.80;;
78542;SDS011;67836;52.430;14.446;2024-03-23T02:57:03;10.35;;;1.80;;
78542;SDS011;67836;52.430;14.446;2024-03-23T02:59:48;9.70;;;1.70;;
78542;SDS011;67836;52.430;14.446;2024-03-23T03:05:15;9.82;;;2.20;;
78542;SDS011;67836;52.430;14.446;2024-03-23T03:10:43;7.82;;;1.85;;
78542;SDS011;67836;52.430;14.446;2024-03-23T03:13:27;6.80;;;1.92;;
78542;SDS011;67836;52.430;14.446;2024-03-23T03:16:11;11.75;;;1.92;;
78542;SDS011;67836;52.430;14.446;2024-03-23T03:18:54;8.77;;;1.80;;
78542;SDS011;67836;52.430;14.446;2024-03-23T03:21:39;10.55;;;1.95;;
78542;SDS011;67836;52.430;14.446;2024-03-23T03:24:23;7.20;;;1.30;;
78542;SDS011;67836;52.430;14.446;2024-03-23T03:29:51;8.55;;;2.05;;
78542;SDS011;67836;52.430;14.446;2024-03-23T03:32:34;6.00;;;1.60;;
78542;SDS011;67836;52.430;14.446;2024-03-23T03:35:18;6.13;;;2.15;;
78542;SDS011;67836;52.430;14.446;2024-03-23T03:40:46;9.85;;;1.90;;
78542;SDS011;67836;52.430;14.446;2024-03-23T03:43:30;11.52;;;2.15;;
78542;SDS011;67836;52.430;14.446;2024-03-23T03:46:14;7.43;;;1.90;;
78542;SDS011;67836;52.430;14.446;2024-03-23T03:51:41;6.72;;;1.88;;
78542;SDS011;67836;52.430;14.446;2024-03-23T03:54:25;12.02;;;2.17;;
78542;SDS011;67836;52.430;14.446;2024-03-23T03:57:09;7.88;;;1.85;;
78542;SDS011;67836;52.430;14.446;2024-03-23T04:02:37;7.13;;;1.40;;
78542;SDS011;67836;52.430;14.446;2024-03-23T04:05:21;12.55;;;2.33;;
78542;SDS011;67836;52.430;14.446;2024-03-23T04:08:07;7.22;;;1.83;;
78542;SDS011;67836;52.430;14.446;2024-03-23T04:10:51;8.38;;;1.92;;
78542;SDS011;67836;52.430;14.446;2024-03-23T04:13:34;9.27;;;1.65;;
78542;SDS011;67836;52.430;14.446;2024-03-23T04:16:27;6.00;;;1.83;;
78542;SDS011;67836;52.430;14.446;2024-03-23T04:19:11;10.93;;;2.28;;
78542;SDS011;67836;52.430;14.446;2024-03-23T04:21:55;12.52;;;2.38;;
78542;SDS011;67836;52.430;14.446;2024-03-23T04:24:39;11.27;;;1.80;;
78542;SDS011;67836;52.430;14.446;2024-03-23T04:27:23;5.15;;;1.67;;
78542;SDS011;67836;52.430;14.446;2024-03-23T04:30:07;6.68;;;1.52;;
78542;SDS011;67836;52.430;14.446;2024-03-23T04:32:54;7.20;;;1.98;;
78542;SDS011;67836;52.430;14.446;2024-03-23T04:35:38;6.57;;;1.65;;
78542;SDS011;67836;52.430;14.446;2024-03-23T04:38:22;7.47;;;1.85;;
78542;SDS011;67836;52.430;14.446;2024-03-23T04:43:50;8.25;;;1.60;;
78542;SDS011;67836;52.430;14.446;2024-03-23T04:46:34;12.38;;;2.17;;
78542;SDS011;67836;52.430;14.446;2024-03-23T04:52:01;14.18;;;2.58;;
78542;SDS011;67836;52.430;14.446;2024-03-23T04:54:45;9.93;;;2.15;;
78542;SDS011;67836;52.430;14.446;2024-03-23T04:57:29;7.00;;;1.90;;
78542;SDS011;67836;52.430;14.446;2024-03-23T05:00:13;12.48;;;2.40;;
78542;SDS011;67836;52.430;14.446;2024-03-23T05:03:03;7.03;;;1.55;;
78542;SDS011;67836;52.430;14.446;2024-03-23T05:05:48;11.98;;;2.13;;
78542;SDS011;67836;52.430;14.446;2024-03-23T05:08:32;2.60;;;1.20;;
78542;SDS011;67836;52.430;14.446;2024-03-23T05:11:16;9.07;;;2.65;;
78542;SDS011;67836;52.430;14.446;2024-03-23T05:16:43;3.60;;;1.10;;
78542;SDS011;67836;52.430;14.446;2024-03-23T05:19:28;9.00;;;1.63;;
78542;SDS011;67836;52.430;14.446;2024-03-23T05:22:12;3.88;;;1.10;;
78542;SDS011;67836;52.430;14.446;2024-03-23T05:24:56;2.85;;;1.00;;
78542;SDS011;67836;52.430;14.446;2024-03-23T05:27:40;4.78;;;0.80;;
78542;SDS011;67836;52.430;14.446;2024-03-23T05:30:24;13.38;;;1.92;;
78542;SDS011;67836;52.430;14.446;2024-03-23T05:33:08;16.08;;;2.33;;
78542;SDS011;67836;52.430;14.446;2024-03-23T05:36:00;12.98;;;2.28;;
78542;SDS011;67836;52.430;14.446;2024-03-23T05:38:44;10.68;;;2.45;;
78542;SDS011;67836;52.430;14.446;2024-03-23T05:41:28;8.00;;;2.20;;
78542;SDS011;67836;52.430;14.446;2024-03-23T05:44:12;9.70;;;2.30;;
78542;SDS011;67836;52.430;14.446;2024-03-23T05:46:55;5.40;;;0.70;;
78542;SDS011;67836;52.430;14.446;2024-03-23T05:49:40;1.33;;;0.68;;
78542;SDS011;67836;52.430;14.446;2024-03-23T05:52:25;9.23;;;1.98;;
78542;SDS011;67836;52.430;14.446;2024-03-23T05:55:10;13.55;;;2.83;;
78542;SDS011;67836;52.430;14.446;2024-03-23T05:57:54;7.97;;;2.17;;
78542;SDS011;67836;52.430;14.446;2024-03-23T06:00:39;17.33;;;2.88;;
78542;SDS011;67836;52.430;14.446;2024-03-23T06:03:23;7.15;;;2.05;;
78542;SDS011;67836;52.430;14.446;2024-03-23T06:06:06;10.60;;;2.30;;
78542;SDS011;67836;52.430;14.446;2024-03-23T06:08:55;12.05;;;3.28;;
78542;SDS011;67836;52.430;14.446;2024-03-23T06:11:39;11.20;;;2.50;;
78542;SDS011;67836;52.430;14.446;2024-03-23T06:14:23;7.28;;;1.65;;
78542;SDS011;67836;52.430;14.446;2024-03-23T06:19:50;9.90;;;2.25;;
78542;SDS011;67836;52.430;14.446;2024-03-23T06:25:18;6.30;;;1.92;;
78542;SDS011;67836;52.430;14.446;2024-03-23T06:28:01;10.32;;;2.58;;
78542;SDS011;67836;52.430;14.446;2024-03-23T06:30:47;6.13;;;2.28;;
78542;SDS011;67836;52.430;14.446;2024-03-23T06:36:14;6.47;;;1.55;;
78542;SDS011;67836;52.430;14.446;2024-03-23T06:38:58;12.65;;;2.55;;
78542;SDS011;67836;52.430;14.446;2024-03-23T06:41:42;10.30;;;1.67;;
78542;SDS011;67836;52.430;14.446;2024-03-23T06:44:26;6.28;;;1.80;;
78542;SDS011;67836;52.430;14.446;2024-03-23T06:47:10;6.75;;;2.35;;
78542;SDS011;67836;52.430;14.446;2024-03-23T06:49:54;6.72;;;1.42;;
78542;SDS011;67836;52.430;14.446;2024-03-23T06:52:38;9.00;;;2.10;;
78542;SDS011;67836;52.430;14.446;2024-03-23T06:55:22;4.90;;;1.30;;
78542;SDS011;67836;52.430;14.446;2024-03-23T06:58:08;9.63;;;1.60;;
78542;SDS011;67836;52.430;14.446;2024-03-23T07:03:36;6.35;;;1.20;;
78542;SDS011;67836;52.430;14.446;2024-03-23T07:06:20;5.15;;;1.73;;
78542;SDS011;67836;52.430;14.446;2024-03-23T07:11:48;6.30;;;2.00;;
78542;SDS011;67836;52.430;14.446;2024-03-23T07:17:15;5.25;;;1.52;;
78542;SDS011;67836;52.430;14.446;2024-03-23T07:20:02;6.03;;;1.75;;
78542;SDS011;67836;52.430;14.446;2024-03-23T07:22:47;10.23;;;2.45;;
78542;SDS011;67836;52.430;14.446;2024-03-23T07:25:31;6.68;;;1.63;;
78542;SDS011;67836;52.430;14.446;2024-03-23T07:28:15;2.70;;;1.13;;
78542;SDS011;67836;52.430;14.446;2024-03-23T07:31:09;5.22;;;1.20;;
78542;SDS011;67836;52.430;14.446;2024-03-23T07:36:37;9.88;;;3.05;;
78542;SDS011;67836;52.430;14.446;2024-03-23T07:39:22;4.43;;;1.85;;
78542;SDS011;67836;52.430;14.446;2024-03-23T07:44:49;4.00;;;1.30;;
78542;SDS011;67836;52.430;14.446;2024-03-23T07:50:16;5.65;;;1.77;;
78542;SDS011;67836;52.430;14.446;2024-03-23T07:53:00;3.78;;;1.55;;
78542;SDS011;67836;52.430;14.446;2024-03-23T07:55:51;4.70;;;1.60;;
78542;SDS011;67836;52.430;14.446;2024-03-23T07:58:35;6.68;;;1.83;;
78542;SDS011;67836;52.430;14.446;2024-03-23T08:01:20;8.73;;;2.28;;
78542;SDS011;67836;52.430;14.446;2024-03-23T08:04:04;9.57;;;2.33;;
78542;SDS011;67836;52.430;14.446;2024-03-23T08:06:48;7.72;;;1.95;;
78542;SDS011;67836;52.430;14.446;2024-03-23T08:12:16;3.40;;;1.38;;
78542;SDS011;67836;52.430;14.446;2024-03-23T08:15:00;7.93;;;1.70;;
78542;SDS011;67836;52.430;14.446;2024-03-23T08:17:44;5.95;;;1.73;;
78542;SDS011;67836;52.430;14.446;2024-03-23T08:23:12;3.65;;;1.40;;
78542;SDS011;67836;52.430;14.446;2024-03-23T08:26:00;8.45;;;1.73;;
78542;SDS011;67836;52.430;14.446;2024-03-23T08:28:44;4.13;;;1.38;;
78542;SDS011;67836;52.430;14.446;2024-03-23T08:36:55;8.13;;;1.73;;
78542;SDS011;67836;52.430;14.446;2024-03-23T08:39:39;2.25;;;1.15;;
78542;SDS011;67836;52.430;14.446;2024-03-23T08:42:23;6.65;;;1.70;;
78542;SDS011;67836;52.430;14.446;2024-03-23T08:45:07;4.90;;;1.30;;
78542;SDS011;67836;52.430;14.446;2024-03-23T08:47:52;5.75;;;1.70;;
78542;SDS011;67836;52.430;14.446;2024-03-23T08:50:35;6.65;;;1.65;;
78542;SDS011;67836;52.430;14.446;2024-03-23T08:53:19;7.80;;;1.65;;
78542;SDS011;67836;52.430;14.446;2024-03-23T08:58:47;6.97;;;1.60;;
78542;SDS011;67836;52.430;14.446;2024-03-23T09:01:30;6.50;;;1.73;;
78542;SDS011;67836;52.430;14.446;2024-03-23T09:04:14;3.30;;;1.27;;
78542;SDS011;67836;52.430;14.446;2024-03-23T09:06:58;9.50;;;2.50;;
78542;SDS011;67836;52.430;14.446;2024-03-23T09:09:43;2.90;;;1.25;;
78542;SDS011;67836;52.430;14.446;2024-03-23T09:12:27;14.48;;;2.00;;
78542;SDS011;67836;52.430;14.446;2024-03-23T09:15:11;3.45;;;1.02;;
78542;SDS011;67836;52.430;14.446;2024-03-23T09:17:55;7.28;;;1.63;;
78542;SDS011;67836;52.430;14.446;2024-03-23T09:20:39;8.43;;;2.20;;
78542;SDS011;67836;52.430;14.446;2024-03-23T09:23:23;6.50;;;1.90;;
78542;SDS011;67836;52.430;14.446;2024-03-23T09:26:07;10.05;;;1.83;;
78542;SDS011;67836;52.430;14.446;2024-03-23T09:28:54;4.85;;;1.48;;
78542;SDS011;67836;52.430;14.446;2024-03-23T09:31:39;8.20;;;2.22;;
78542;SDS011;67836;52.430;14.446;2024-03-23T09:34:23;5.18;;;2.03;;
78542;SDS011;67836;52.430;14.446;2024-03-23T09:39:50;4.35;;;1.40;;
78542;SDS011;67836;52.430;14.446;2024-03-23T09:42:34;5.38;;;1.30;;
78542;SDS011;67836;52.430;14.446;2024-03-23T09:45:21;2.83;;;1.35;;
78542;SDS011;67836;52.430;14.446;2024-03-23T09:48:05;4.97;;;1.58;;
78542;SDS011;67836;52.430;14.446;2024-03-23T09:50:50;1.80;;;0.75;;
78542;SDS011;67836;52.430;14.446;2024-03-23T09:53:34;5.13;;;0.90;;
78542;SDS011;67836;52.430;14.446;2024-03-23T09:56:18;1.20;;;0.57;;
78542;SDS011;67836;52.430;14.446;2024-03-23T09:59:02;1.27;;;0.77;;
78542;SDS011;67836;52.430;14.446;2024-03-23T10:01:47;1.75;;;0.75;;
78542;SDS011;67836;52.430;14.446;2024-03-23T10:07:20;0.40;;;0.32;;
78542;SDS011;67836;52.430;14.446;2024-03-23T10:10:10;3.17;;;0.98;;
78542;SDS011;67836;52.430;14.446;2024-03-23T10:12:54;2.25;;;0.70;;
78542;SDS011;67836;52.430;14.446;2024-03-23T10:18:21;1.45;;;0.75;;
78542;SDS011;67836;52.430;14.446;2024-03-23T10:21:09;1.30;;;0.65;;
78542;SDS011;67836;52.430;14.446;2024-03-23T10:23:54;1.88;;;0.75;;
78542;SDS011;67836;52.430;14.446;2024-03-23T10:26:38;2.38;;;0.98;;
78542;SDS011;67836;52.430;14.446;2024-03-23T10:29:23;2.45;;;0.65;;
78542;SDS011;67836;52.430;14.446;2024-03-23T10:32:07;0.88;;;0.73;;
78542;SDS011;67836;52.430;14.446;2024-03-23T10:34:51;2.70;;;1.10;;
78542;SDS011;67836;52.430;14.446;2024-03-23T10:37:35;1.15;;;0.73;;
78542;SDS011;67836;52.430;14.446;2024-03-23T10:40:20;2.30;;;0.80;;
78542;SDS011;67836;52.430;14.446;2024-03-23T10:43:04;1.75;;;0.70;;
78542;SDS011;67836;52.430;14.446;2024-03-23T10:45:49;3.08;;;0.93;;
78542;SDS011;67836;52.430;14.446;2024-03-23T10:48:33;2.78;;;0.55;;
78542;SDS011;67836;52.430;14.446;2024-03-23T10:51:17;3.10;;;0.65;;
78542;SDS011;67836;52.430;14.446;2024-03-23T10:54:02;2.53;;;0.80;;
78542;SDS011;67836;52.430;14.446;2024-03-23T10:56:47;3.50;;;1.02;;
78542;SDS011;67836;52.430;14.446;2024-03-23T10:59:33;1.73;;;0.60;;
78542;SDS011;67836;52.430;14.446;2024-03-23T11:02:19;1.67;;;0.55;;
78542;SDS011;67836;52.430;14.446;2024-03-23T11:05:27;1.00;;;0.65;;
78542;SDS011;67836;52.430;14.446;2024-03-23T11:08:07;1.58;;;0.45;;
78542;SDS011;67836;52.430;14.446;2024-03-23T11:10:51;1.20;;;0.55;;
78542;SDS011;67836;52.430;14.446;2024-03-23T11:13:34;2.40;;;0.85;;
78542;SDS011;67836;52.430;14.446;2024-03-23T11:21:52;2.83;;;0.60;;
78542;SDS011;67836;52.430;14.446;2024-03-23T11:24:39;1.25;;;0.65;;
78542;SDS011;67836;52.430;14.446;2024-03-23T11:27:23;2.10;;;0.80;;
78542;SDS011;67836;52.430;14.446;2024-03-23T11:30:17;0.63;;;0.38;;
78542;SDS011;67836;52.430;14.446;2024-03-23T11:33:02;1.15;;;0.75;;
78542;SDS011;67836;52.430;14.446;2024-03-23T11:35:45;3.80;;;0.75;;
78542;SDS011;67836;52.430;14.446;2024-03-23T11:38:29;3.03;;;1.08;;
78542;SDS011;67836;52.430;14.446;2024-03-23T11:41:19;3.42;;;0.70;;
78542;SDS011;67836;52.430;14.446;2024-03-23T11:44:20;0.20;;;0.20;;
78542;SDS011;67836;52.430;14.446;2024-03-23T11:47:07;3.78;;;0.80;;
78542;SDS011;67836;52.430;14.446;2024-03-23T11:49:52;2.80;;;0.90;;
78542;SDS011;67836;52.430;14.446;2024-03-23T11:55:19;2.85;;;1.27;;
78542;SDS011;67836;52.430;14.446;2024-03-23T11:58:03;2.15;;;1.00;;
78542;SDS011;67836;52.430;14.446;2024-03-23T12:00:50;1.15;;;0.60;;
78542;SDS011;67836;52.430;14.446;2024-03-23T12:03:35;0.80;;;0.60;;
78542;SDS011;67836;52.430;14.446;2024-03-23T12:06:19;1.55;;;0.63;;
78542;SDS011;67836;52.430;14.446;2024-03-23T12:09:06;1.02;;;0.52;;
78542;SDS011;67836;52.430;14.446;2024-03-23T12:11:50;3.72;;;0.57;;
78542;SDS011;67836;52.430;14.446;2024-03-23T12:14:34;1.35;;;0.68;;
78542;SDS011;67836;52.430;14.446;2024-03-23T12:20:01;5.70;;;1.10;;
78542;SDS011;67836;52.430;14.446;2024-03-23T12:22:46;1.55;;;0.60;;
78542;SDS011;67836;52.430;14.446;2024-03-23T12:25:30;2.42;;;0.95;;
78542;SDS011;67836;52.430;14.446;2024-03-23T12:28:14;6.28;;;1.25;;
78542;SDS011;67836;52.430;14.446;2024-03-23T12:30:58;1.80;;;0.93;;
78542;SDS011;67836;52.430;14.446;2024-03-23T12:33:42;1.63;;;0.55;;
78542;SDS011;67836;52.430;14.446;2024-03-23T12:36:28;1.13;;;0.70;;
78542;SDS011;67836;52.430;14.446;2024-03-23T12:39:12;4.00;;;0.93;;
78542;SDS011;67836;52.430;14.446;2024-03-23T12:41:56;0.60;;;0.43;;
78542;SDS011;67836;52.430;14.446;2024-03-23T12:44:40;4.07;;;0.88;;
78542;SDS011;67836;52.430;14.446;2024-03-23T12:47:25;1.83;;;0.90;;
78542;SDS011;67836;52.430;14.446;2024-03-23T12:50:09;4.03;;;0.75;;
78542;SDS011;67836;52.430;14.446;2024-03-23T12:52:53;0.70;;;0.47;;
78542;SDS011;67836;52.430;14.446;2024-03-23T12:55:37;2.65;;;0.60;;
78542;SDS011;67836;52.430;14.446;2024-03-23T12:58:21;1.88;;;0.90;;
78542;SDS011;67836;52.430;14.446;2024-03-23T13:01:05;2.38;;;0.73;;
78542;SDS011;67836;52.430;14.446;2024-03-23T13:03:50;0.70;;;0.60;;
78542;SDS011;67836;52.430;14.446;2024-03-23T13:06:34;5.07;;;1.17;;
78542;SDS011;67836;52.430;14.446;2024-03-23T13:09:18;1.90;;;0.93;;
78542;SDS011;67836;52.430;14.446;2024-03-23T13:12:02;1.60;;;0.82;;
78542;SDS011;67836;52.430;14.446;2024-03-23T13:14:46;1.75;;;0.90;;
78542;SDS011;67836;52.430;14.446;2024-03-23T13:17:30;3.13;;;1.05;;
78542;SDS011;67836;52.430;14.446;2024-03-23T13:20:14;3.40;;;1.33;;
78542;SDS011;67836;52.430;14.446;2024-03-23T13:22:58;2.10;;;1.05;;
78542;SDS011;67836;52.430;14.446;2024-03-23T13:25:49;1.05;;;0.30;;
78542;SDS011;67836;52.430;14.446;2024-03-23T13:28:32;5.45;;;1.50;;
78542;SDS011;67836;52.430;14.446;2024-03-23T13:31:17;1.48;;;0.70;;
78542;SDS011;67836;52.430;14.446;2024-03-23T13:36:45;5.00;;;1.45;;
78542;SDS011;67836;52.430;14.446;2024-03-23T13:39:30;1.23;;;0.68;;
78542;SDS011;67836;52.430;14.446;2024-03-23T13:42:14;5.90;;;1.67;;
78542;SDS011;67836;52.430;14.446;2024-03-23T13:44:59;2.50;;;0.95;;
78542;SDS011;67836;52.430;14.446;2024-03-23T13:47:44;4.78;;;1.98;;
78542;SDS011;67836;52.430;14.446;2024-03-23T13:50:27;7.55;;;1.73;;
78542;SDS011;67836;52.430;14.446;2024-03-23T13:53:11;1.85;;;0.77;;
78542;SDS011;67836;52.430;14.446;2024-03-23T13:58:39;6.97;;;1.80;;
78542;SDS011;67836;52.430;14.446;2024-03-23T14:01:23;3.63;;;1.23;;
78542;SDS011;67836;52.430;14.446;2024-03-23T14:04:07;5.47;;;1.67;;
78542;SDS011;67836;52.430;14.446;2024-03-23T14:06:51;8.15;;;2.42;;
78542;SDS011;67836;52.430;14.446;2024-03-23T14:09:35;4.10;;;0.90;;
78542;SDS011;67836;52.430;14.446;2024-03-23T14:12:19;8.23;;;3.97;;
78542;SDS011;67836;52.430;14.446;2024-03-23T14:15:06;8.13;;;2.92;;
78542;SDS011;67836;52.430;14.446;2024-03-23T14:17:50;5.68;;;2.15;;
78542;SDS011;67836;52.430;14.446;2024-03-23T14:20:35;7.60;;;2.25;;
78542;SDS011;67836;52.430;14.446;2024-03-23T14:26:02;7.18;;;2.30;;
78542;SDS011;67836;52.430;14.446;2024-03-23T14:31:30;6.97;;;1.77;;
78542;SDS011;67836;52.430;14.446;2024-03-23T14:34:14;9.38;;;2.92;;
78542;SDS011;67836;52.430;14.446;2024-03-23T14:36:58;5.35;;;1.60;;
78542;SDS011;67836;52.430;14.446;2024-03-23T14:39:42;5.90;;;2.22;;
78542;SDS011;67836;52.430;14.446;2024-03-23T14:42:28;4.93;;;1.55;;
78542;SDS011;67836;52.430;14.446;2024-03-23T14:45:12;6.65;;;2.60;;
78542;SDS011;67836;52.430;14.446;2024-03-23T14:47:56;8.10;;;2.00;;
78542;SDS011;67836;52.430;14.446;2024-03-23T14:50:41;4.35;;;1.25;;
78542;SDS011;67836;52.430;14.446;2024-03-23T14:53:26;6.85;;;2.33;;
78542;SDS011;67836;52.430;14.446;2024-03-23T14:56:13;6.65;;;1.85;;
78542;SDS011;67836;52.430;14.446;2024-03-23T14:58:58;8.60;;;2.22;;
78542;SDS011;67836;52.430;14.446;2024-03-23T15:01:42;7.30;;;2.65;;
78542;SDS011;67836;52.430;14.446;2024-03-23T15:04:26;5.05;;;1.70;;
78542;SDS011;67836;52.430;14.446;2024-03-23T15:07:10;7.13;;;1.65;;
78542;SDS011;67836;52.430;14.446;2024-03-23T15:09:54;11.35;;;3.50;;
78542;SDS011;67836;52.430;14.446;2024-03-23T15:12:38;6.85;;;2.05;;
78542;SDS011;67836;52.430;14.446;2024-03-23T15:15:21;5.80;;;1.92;;
78542;SDS011;67836;52.430;14.446;2024-03-23T15:18:05;6.03;;;1.83;;
78542;SDS011;67836;52.430;14.446;2024-03-23T15:20:53;7.75;;;2.53;;
78542;SDS011;67836;52.430;14.446;2024-03-23T15:23:37;8.30;;;2.60;;
78542;SDS011;67836;52.430;14.446;2024-03-23T15:26:21;8.63;;;2.92;;
78542;SDS011;67836;52.430;14.446;2024-03-23T15:29:05;8.55;;;2.70;;
78542;SDS011;67836;52.430;14.446;2024-03-23T15:32:00;8.20;;;2.78;;
78542;SDS011;67836;52.430;14.446;2024-03-23T15:34:45;9.52;;;2.72;;
78542;SDS011;67836;52.430;14.446;2024-03-23T15:37:31;3.85;;;1.73;;
78542;SDS011;67836;52.430;14.446;2024-03-23T15:40:14;12.80;;;2.88;;
78542;SDS011;67836;52.430;14.446;2024-03-23T15:42:58;10.25;;;2.53;;
78542;SDS011;67836;52.430;14.446;2024-03-23T15:45:42;8.25;;;2.80;;
78542;SDS011;67836;52.430;14.446;2024-03-23T15:48:27;8.43;;;2.55;;
78542;SDS011;67836;52.430;14.446;2024-03-23T15:51:10;7.75;;;1.67;;
78542;SDS011;67836;52.430;14.446;2024-03-23T15:53:54;5.18;;;1.63;;
78542;SDS011;67836;52.430;14.446;2024-03-23T15:56:40;2.42;;;0.88;;
78542;SDS011;67836;52.430;14.446;2024-03-23T15:59:25;2.70;;;0.57;;
78542;SDS011;67836;52.430;14.446;2024-03-23T16:02:09;0.70;;;0.60;;
78542;SDS011;67836;52.430;14.446;2024-03-23T16:07:37;2.17;;;0.63;;
78542;SDS011;67836;52.430;14.446;2024-03-23T16:10:22;3.20;;;1.05;;
78542;SDS011;67836;52.430;14.446;2024-03-23T16:13:06;1.73;;;1.10;;
78542;SDS011;67836;52.430;14.446;2024-03-23T16:16:00;6.35;;;1.65;;
78542;SDS011;67836;52.430;14.446;2024-03-23T16:18:47;4.15;;;1.95;;
78542;SDS011;67836;52.430;14.446;2024-03-23T16:24:14;3.13;;;1.35;;
78542;SDS011;67836;52.430;14.446;2024-03-23T16:26:58;5.35;;;1.27;;
78542;SDS011;67836;52.430;14.446;2024-03-23T16:29:42;2.40;;;0.90;;
78542;SDS011;67836;52.430;14.446;2024-03-23T16:32:26;3.85;;;1.55;;
78542;SDS011;67836;52.430;14.446;2024-03-23T16:35:13;9.63;;;2.63;;
78542;SDS011;67836;52.430;14.446;2024-03-23T16:37:57;3.13;;;1.70;;
78542;SDS011;67836;52.430;14.446;2024-03-23T16:40:41;3.67;;;1.98;;
78542;SDS011;67836;52.430;14.446;2024-03-23T16:43:25;2.83;;;1.90;;
78542;SDS011;67836;52.430;14.446;2024-03-23T16:46:10;6.57;;;2.38;;
78542;SDS011;67836;52.430;14.446;2024-03-23T16:48:54;5.05;;;1.92;;
78542;SDS011;67836;52.430;14.446;2024-03-23T16:51:38;3.35;;;1.45;;
78542;SDS011;67836;52.430;14.446;2024-03-23T16:54:21;3.47;;;0.93;;
78542;SDS011;67836;52.430;14.446;2024-03-23T16:57:05;2.65;;;1.23;;
78542;SDS011;67836;52.430;14.446;2024-03-23T16:59:49;2.67;;;1.10;;
78542;SDS011;67836;52.430;14.446;2024-03-23T17:02:33;4.60;;;1.90;;
78542;SDS011;67836;52.430;14.446;2024-03-23T17:05:21;3.72;;;1.30;;
78542;SDS011;67836;52.430;14.446;2024-03-23T17:08:06;3.45;;;1.52;;
78542;SDS011;67836;52.430;14.446;2024-03-23T17:10:50;0.55;;;0.55;;
78542;SDS011;67836;52.430;14.446;2024-03-23T17:13:33;3.92;;;1.48;;
78542;SDS011;67836;52.430;14.446;2024-03-23T17:16:18;1.40;;;0.65;;
78542;SDS011;67836;52.430;14.446;2024-03-23T17:21:45;2.63;;;1.33;;
78542;SDS011;67836;52.430;14.446;2024-03-23T17:24:29;3.28;;;1.05;;
78542;SDS011;67836;52.430;14.446;2024-03-23T17:27:13;1.25;;;0.65;;
78542;SDS011;67836;52.430;14.446;2024-03-23T17:29:57;1.67;;;0.75;;
78542;SDS011;67836;52.430;14.446;2024-03-23T17:32:42;10.20;;;4.20;;
78542;SDS011;67836;52.430;14.446;2024-03-23T17:35:26;2.75;;;1.60;;
78542;SDS011;67836;52.430;14.446;2024-03-23T17:38:09;2.42;;;1.00;;
78542;SDS011;67836;52.430;14.446;2024-03-23T17:43:37;0.65;;;0.65;;
78542;SDS011;67836;52.430;14.446;2024-03-23T17:46:21;3.50;;;1.50;;
78542;SDS011;67836;52.430;14.446;2024-03-23T17:49:04;4.53;;;1.60;;
78542;SDS011;67836;52.430;14.446;2024-03-23T17:51:48;2.53;;;1.20;;
78542;SDS011;67836;52.430;14.446;2024-03-23T17:54:32;3.50;;;1.58;;
78542;SDS011;67836;52.430;14.446;2024-03-23T17:57:16;3.63;;;1.00;;
78542;SDS011;67836;52.430;14.446;2024-03-23T18:00:00;2.65;;;1.30;;
78542;SDS011;67836;52.430;14.446;2024-03-23T18:02:44;8.07;;;2.80;;
78542;SDS011;67836;52.430;14.446;2024-03-23T18:05:28;6.35;;;2.40;;
78542;SDS011;67836;52.430;14.446;2024-03-23T18:08:12;7.70;;;2.88;;
78542;SDS011;67836;52.430;14.446;2024-03-23T18:10:56;8.60;;;2.95;;
78542;SDS011;67836;52.430;14.446;2024-03-23T18:13:40;8.52;;;3.17;;
78542;SDS011;67836;52.430;14.446;2024-03-23T18:16:25;5.68;;;2.47;;
78542;SDS011;67836;52.430;14.446;2024-03-23T18:19:09;7.82;;;3.00;;
78542;SDS011;67836;52.430;14.446;2024-03-23T18:21:52;6.63;;;2.85;;
78542;SDS011;67836;52.430;14.446;2024-03-23T18:30:04;7.35;;;2.80;;
78542;SDS011;67836;52.430;14.446;2024-03-23T18:32:49;10.05;;;3.25;;
78542;SDS011;67836;52.430;14.446;2024-03-23T18:35:33;3.85;;;1.80;;
78542;SDS011;67836;52.430;14.446;2024-03-23T18:38:18;6.90;;;3.00;;
78542;SDS011;67836;52.430;14.446;2024-03-23T18:41:02;5.20;;;1.98;;
78542;SDS011;67836;52.430;14.446;2024-03-23T18:43:46;8.75;;;2.97;;
78542;SDS011;67836;52.430;14.446;2024-03-23T18:46:30;2.67;;;1.35;;
78542;SDS011;67836;52.430;14.446;2024-03-23T18:49:14;8.57;;;4.32;;
78542;SDS011;67836;52.430;14.446;2024-03-23T18:51:58;7.07;;;2.70;;
78542;SDS011;67836;52.430;14.446;2024-03-23T18:54:42;7.95;;;3.22;;
78542;SDS011;67836;52.430;14.446;2024-03-23T19:00:10;7.18;;;3.78;;
78542;SDS011;67836;52.430;14.446;2024-03-23T19:02:54;8.80;;;3.63;;
78542;SDS011;67836;52.430;14.446;2024-03-23T19:05:38;7.80;;;2.90;;
78542;SDS011;67836;52.430;14.446;2024-03-23T19:08:22;5.72;;;3.00;;
78542;SDS011;67836;52.430;14.446;2024-03-23T19:11:07;7.50;;;3.38;;
78542;SDS011;67836;52.430;14.446;2024-03-23T19:13:52;8.40;;;3.75;;
78542;SDS011;67836;52.430;14.446;2024-03-23T19:16:35;8.57;;;3.42;;
78542;SDS011;67836;52.430;14.446;2024-03-23T19:24:47;11.07;;;5.05;;
78542;SDS011;67836;52.430;14.446;2024-03-23T19:27:31;6.85;;;2.80;;
78542;SDS011;67836;52.430;14.446;2024-03-23T19:30:16;7.93;;;3.20;;
78542;SDS011;67836;52.430;14.446;2024-03-23T19:33:00;8.70;;;4.32;;
78542;SDS011;67836;52.430;14.446;2024-03-23T19:35:45;8.38;;;4.28;;